Time;durP1;ratioP1;P1;durP2;ratioP2;P2;SDS_P1;SDS_P2;PMS_P1;PMS_P2;Temp;Humidity;BMP_temperature;BMP_pressure;BME280_temperature;BME280_humidity;BME280_pressure;Samples;Min_cycle;Max_cycle;Signal;HPM_P1;HPM_P2
2021/03/09 07:23:49;;;;;;;8.70;5.92;;;;;;;-1.73;65.80;98422.80;1898511;74;28020;-61
2021/03/09 07:26:18;;;;;;;6.72;3.30;;;;;;;-1.71;66.01;98416.84;1886619;75;20989;-60
2021/03/09 07:28:51;;;;;;;10.93;6.25;;;;;;;-1.58;65.74;98420.77;1782612;78;21513;-63
2021/03/09 07:31:26;;;;;;;12.88;6.90;;;;;;;-1.44;65.32;98417.11;1786876;80;20924;-62
2021/03/09 07:33:56;;;;;;;10.58;5.90;;;;;;;-1.26;65.15;98424.89;1788003;79;21548;-60
2021/03/09 07:36:25;;;;;;;6.97;3.47;;;;;;;-1.08;64.70;98430.31;1822211;78;20986;-62
2021/03/09 07:38:53;;;;;;;9.90;2.92;;;;;;;-0.97;64.10;98423.94;1780381;80;21567;-57
2021/03/09 07:41:25;;;;;;;6.92;2.95;;;;;;;-0.89;62.48;98422.88;1812315;78;21527;-64
2021/03/09 07:43:53;;;;;;;6.15;2.75;;;;;;;-0.90;61.11;98420.78;1794636;78;21077;-57
2021/03/09 07:46:22;;;;;;;9.40;2.80;;;;;;;-0.95;60.14;98423.22;1803383;78;21594;-62
2021/03/09 07:48:54;;;;;;;8.30;3.47;;;;;;;-0.98;59.70;98426.25;1781294;79;21563;-63
2021/03/09 07:51:23;;;;;;;10.05;4.20;;;;;;;-0.96;59.51;98429.98;1789147;79;21158;-60
2021/03/09 07:54:16;;;;;;;8.45;3.80;;;;;;;-0.92;59.02;98428.58;1784068;80;21628;-62
2021/03/09 07:57:23;;;;;;;6.62;3.27;;;;;;;-0.93;58.87;98426.95;1784366;79;21145;-56
2021/03/09 08:00:07;;;;;;;9.83;3.30;;;;;;;-0.96;58.62;98428.67;1778615;79;21200;-64
2021/03/09 08:02:56;;;;;;;6.25;3.65;;;;;;;-0.92;57.71;98424.09;1838749;77;21345;-62
2021/03/09 08:05:28;;;;;;;5.85;3.47;;;;;;;-0.87;57.66;98426.11;1789401;80;21004;-62
2021/03/09 08:08:03;;;;;;;9.60;5.40;;;;;;;-0.85;56.99;98430.69;1761867;80;21487;-61
2021/03/09 08:10:43;;;;;;;9.10;4.13;;;;;;;-0.82;57.05;98432.38;1777282;80;21088;-61
2021/03/09 08:13:20;;;;;;;7.20;4.60;;;;;;;-0.77;57.25;98433.06;1807175;79;21534;-59
2021/03/09 08:15:50;;;;;;;10.30;5.20;;;;;;;-0.69;57.17;98435.48;1815794;78;21022;-56
2021/03/09 08:18:30;;;;;;;8.65;5.03;;;;;;;-0.62;56.93;98434.95;1810951;77;21196;-56
2021/03/09 08:20:59;;;;;;;7.00;4.33;;;;;;;-0.56;56.73;98435.92;1791333;77;22588;-58
2021/03/09 08:23:48;;;;;;;5.85;3.90;;;;;;;-0.54;56.44;98429.44;1778347;79;21208;-59
2021/03/09 08:26:31;;;;;;;5.55;3.60;;;;;;;-0.54;55.91;98433.38;1776869;79;21624;-64
2021/03/09 08:29:23;;;;;;;6.37;3.60;;;;;;;-0.53;56.02;98431.06;1881332;76;21089;-57
2021/03/09 08:31:56;;;;;;;7.47;3.15;;;;;;;-0.44;55.92;98432.44;1779336;79;21497;-63
2021/03/09 08:34:32;;;;;;;7.00;3.47;;;;;;;-0.40;55.54;98433.63;1756516;80;21664;-61
2021/03/09 08:37:02;;;;;;;10.13;3.52;;;;;;;-0.30;55.45;98435.81;1778508;80;21619;-62
2021/03/09 08:39:34;;;;;;;16.02;4.12;;;;;;;-0.28;55.48;98425.88;1721736;81;21110;-60
2021/03/09 08:42:06;;;;;;;5.08;3.10;;;;;;;-0.25;55.08;98432.86;1840146;77;21524;-61
2021/03/09 08:44:41;;;;;;;3.95;2.83;;;;;;;-0.26;55.09;98425.96;1832985;77;21088;-58
2021/03/09 08:47:13;;;;;;;6.50;3.08;;;;;;;-0.14;55.03;98428.73;1845472;77;21553;-57
2021/03/09 08:49:49;;;;;;;5.60;3.08;;;;;;;0.00;54.93;98427.13;1780485;79;21549;-62
2021/03/09 08:52:33;;;;;;;13.48;2.98;;;;;;;0.12;54.80;98430.42;1785425;79;21596;-59
2021/03/09 08:55:05;;;;;;;5.92;3.40;;;;;;;0.23;54.08;98432.36;1759672;79;21536;-61
2021/03/09 08:57:35;;;;;;;4.70;2.83;;;;;;;0.20;53.84;98430.15;1796906;79;21515;-62
2021/03/09 09:00:15;;;;;;;2.87;2.10;;;;;;;0.24;53.26;98434.77;1784984;79;21379;-59
2021/03/09 09:02:54;;;;;;;3.33;2.00;;;;;;;0.21;53.03;98431.78;1781172;80;21205;-62
2021/03/09 09:05:29;;;;;;;5.87;3.92;;;;;;;0.37;52.30;98427.30;1782148;80;21576;-59
2021/03/09 09:08:04;;;;;;;5.00;2.58;;;;;;;0.46;52.22;98428.13;1794170;77;21996;-57
2021/03/09 09:10:36;;;;;;;3.22;2.30;;;;;;;0.49;51.37;98429.03;1814340;79;21546;-58
2021/03/09 09:13:06;;;;;;;12.90;3.83;;;;;;;0.41;51.30;98431.11;1814006;79;21202;-57
2021/03/09 09:15:42;;;;;;;5.42;3.17;;;;;;;0.34;51.85;98438.25;1755499;80;21044;-54
2021/03/09 09:18:13;;;;;;;8.98;4.35;;;;;;;0.30;51.93;98439.71;1786348;79;21562;-59
2021/03/09 09:20:46;;;;;;;6.37;3.02;;;;;;;0.27;52.08;98440.13;1814299;79;20996;-61
2021/03/09 09:23:30;;;;;;;6.22;3.10;;;;;;;0.25;52.05;98445.63;1773028;80;21470;-57
2021/03/09 09:26:02;;;;;;;8.18;4.92;;;;;;;0.17;52.16;98449.01;1793836;78;21204;-61
2021/03/09 09:28:38;;;;;;;10.20;5.72;;;;;;;0.14;52.66;98448.95;1786099;78;21601;-62
2021/03/09 09:31:12;;;;;;;21.10;11.10;;;;;;;0.30;52.30;98455.52;1786571;78;21067;-60
2021/03/09 09:33:55;;;;;;;4.62;3.50;;;;;;;0.47;52.34;98447.40;1819303;78;21142;-60
2021/03/09 09:36:25;;;;;;;6.37;3.50;;;;;;;0.69;52.06;98452.57;1819036;78;20944;-61
2021/03/09 09:39:02;;;;;;;11.57;5.83;;;;;;;0.85;52.00;98448.06;1802148;78;22156;-58
2021/03/09 09:41:32;;;;;;;15.45;6.30;;;;;;;1.05;51.60;98444.73;1785969;78;21577;-57
2021/03/09 09:44:02;;;;;;;6.03;4.67;;;;;;;1.21;50.42;98446.80;1807560;78;20988;-58
2021/03/09 09:46:35;;;;;;;3.67;2.30;;;;;;;1.19;47.94;98440.94;1791186;78;21618;-61
2021/03/09 09:49:06;;;;;;;6.47;3.83;;;;;;;1.12;46.77;98442.02;1749546;82;21015;-57
2021/03/09 09:51:38;;;;;;;18.85;11.85;;;;;;;1.07;47.65;98445.32;1789424;78;21441;-57
2021/03/09 09:54:11;;;;;;;9.73;4.05;;;;;;;1.11;47.46;98446.48;1810894;78;21470;-60
2021/03/09 09:56:42;;;;;;;3.17;1.90;;;;;;;1.11;45.91;98443.85;1821108;78;21467;-57
2021/03/09 09:59:28;;;;;;;6.22;2.87;;;;;;;1.05;46.31;98440.78;1821198;78;21571;-60
2021/03/09 10:01:57;;;;;;;6.40;3.77;;;;;;;1.07;46.54;98442.69;1796191;78;20931;-64
2021/03/09 10:04:34;;;;;;;12.65;6.30;;;;;;;1.05;45.29;98443.92;1792912;78;22427;-63
2021/03/09 10:07:22;;;;;;;7.05;4.10;;;;;;;1.01;45.30;98443.57;1788909;78;21012;-60
2021/03/09 10:10:09;;;;;;;10.58;5.12;;;;;;;0.97;45.29;98441.05;1810354;78;21044;-57
2021/03/09 10:12:45;;;;;;;7.40;4.15;;;;;;;0.86;45.10;98440.45;1786081;78;21458;-60
2021/03/09 10:15:22;;;;;;;5.55;3.50;;;;;;;0.77;45.62;98440.45;1877639;75;22866;-58
2021/03/09 10:18:04;;;;;;;8.90;5.65;;;;;;;0.65;46.04;98446.13;1879052;76;20919;-56
2021/03/09 10:20:37;;;;;;;7.97;5.20;;;;;;;0.60;46.43;98449.41;1864899;76;21543;-61
2021/03/09 10:23:09;;;;;;;29.12;15.80;;;;;;;0.63;46.95;98452.94;1847019;77;21579;-61
2021/03/09 10:25:44;;;;;;;5.67;3.60;;;;;;;0.67;47.25;98454.62;1817197;77;20917;-59
2021/03/09 10:28:17;;;;;;;3.85;2.52;;;;;;;0.71;45.82;98450.52;1795770;77;21603;-57
2021/03/09 10:30:53;;;;;;;8.15;4.65;;;;;;;0.70;45.90;98454.20;1730589;77;21025;-59
2021/03/09 10:33:29;;;;;;;9.60;5.20;;;;;;;0.62;46.58;98454.45;1835222;77;21203;-58
2021/03/09 10:36:13;;;;;;;10.05;4.80;;;;;;;0.58;47.13;98456.73;1796944;77;21128;-59
2021/03/09 10:38:45;;;;;;;5.33;2.70;;;;;;;0.53;46.67;98458.38;1829448;77;21026;-61
2021/03/09 10:41:30;;;;;;;8.45;5.20;;;;;;;0.40;47.34;98461.13;1836938;77;21568;-59
2021/03/09 10:44:02;;;;;;;3.93;2.90;;;;;;;0.33;47.65;98459.06;1844324;77;20915;-57
2021/03/09 10:46:35;;;;;;;5.42;2.98;;;;;;;0.23;47.05;98463.98;1844215;77;21369;-57
2021/03/09 10:49:10;;;;;;;6.45;3.35;;;;;;;0.09;46.83;98463.77;1857485;76;20990;-59
2021/03/09 10:51:42;;;;;;;6.50;3.60;;;;;;;0.03;46.99;98471.17;1773730;80;21525;-59
2021/03/09 10:54:12;;;;;;;4.75;3.30;;;;;;;0.00;47.89;98471.91;1790547;78;21600;-60
2021/03/09 10:56:45;;;;;;;8.38;2.85;;;;;;;0.07;47.28;98466.63;1793932;80;20903;-62
2021/03/09 10:59:15;;;;;;;6.65;4.12;;;;;;;0.11;47.21;98466.99;1763568;80;21200;-59
2021/03/09 11:01:46;;;;;;;6.12;4.10;;;;;;;0.20;47.81;98472.30;1762564;80;21476;-59
2021/03/09 11:04:23;;;;;;;4.87;3.72;;;;;;;0.27;47.63;98471.75;1793799;80;21492;-60
2021/03/09 11:06:57;;;;;;;5.45;3.60;;;;;;;0.37;47.35;98470.27;1763516;80;21001;-57
2021/03/09 11:09:30;;;;;;;4.97;2.60;;;;;;;0.49;46.41;98473.02;1762500;81;21527;-56
2021/03/09 11:12:12;;;;;;;;;;;;;;;0.47;46.66;98469.80;1787579;73;21192;31
2021/03/09 11:14:46;;;;;;;4.75;3.00;;;;;;;0.50;46.17;98466.72;1718190;82;21489;-57
2021/03/09 11:17:16;;;;;;;4.45;3.33;;;;;;;0.46;46.23;98469.49;1697194;83;21635;-58
2021/03/09 11:19:52;;;;;;;3.60;2.60;;;;;;;0.44;46.58;98471.53;1720597;83;21208;-58
2021/03/09 11:22:22;;;;;;;4.30;3.33;;;;;;;0.40;46.92;98469.04;1698132;83;21140;-58
2021/03/09 11:24:54;;;;;;;3.27;2.62;;;;;;;0.29;46.09;98472.34;1721238;83;22185;-61
2021/03/09 11:27:28;;;;;;;4.58;3.15;;;;;;;0.18;46.10;98471.20;1720648;83;21632;-59
2021/03/09 11:30:17;;;;;;;15.40;6.75;;;;;;;0.05;46.51;98475.22;1720657;83;21581;-59
2021/03/09 11:32:46;;;;;;;10.15;4.28;;;;;;;0.00;47.31;98462.69;1720992;83;21037;-60
2021/03/09 11:35:46;;;;;;;4.53;3.20;;;;;;;0.04;47.60;98466.22;1720925;83;21045;-57
2021/03/09 11:38:16;;;;;;;7.33;3.77;;;;;;;0.12;47.35;98465.98;1652453;83;21214;-58
2021/03/09 11:40:58;;;;;;;6.58;3.98;;;;;;;0.20;47.03;98465.72;1878352;76;28235;-57
2021/03/09 11:43:28;;;;;;;7.03;3.52;;;;;;;0.11;46.67;98460.41;1852508;77;21480;-59
2021/03/09 11:45:57;;;;;;;3.70;2.87;;;;;;;0.12;47.45;98464.67;1866825;76;21744;-60
2021/03/09 11:48:25;;;;;;;8.25;3.37;;;;;;;0.19;47.37;98460.95;1834069;76;21599;-60
2021/03/09 11:50:54;;;;;;;5.72;3.83;;;;;;;0.29;47.41;98459.16;1784893;79;21333;-59
2021/03/09 11:53:24;;;;;;;5.72;3.67;;;;;;;0.45;47.09;98453.36;1780635;80;21521;-59
2021/03/09 11:55:53;;;;;;;6.25;3.50;;;;;;;0.54;46.75;98457.38;1815209;79;21440;-58
2021/03/09 11:58:21;;;;;;;6.72;3.77;;;;;;;0.58;46.27;98453.28;1815100;79;21972;-60
2021/03/09 12:00:50;;;;;;;4.92;2.65;;;;;;;0.60;46.79;98459.14;1815075;78;20958;-59
2021/03/09 12:03:22;;;;;;;5.25;3.95;;;;;;;0.65;45.62;98454.03;1815003;79;21334;-56
2021/03/09 12:05:50;;;;;;;7.78;3.58;;;;;;;0.69;46.13;98456.02;1793773;79;21564;-59
2021/03/09 12:08:18;;;;;;;4.62;2.65;;;;;;;0.82;46.28;98452.47;1805904;79;21533;-62
2021/03/09 12:10:46;;;;;;;3.95;2.70;;;;;;;0.86;45.89;98456.28;1806021;79;21837;-59
2021/03/09 12:13:14;;;;;;;4.87;3.33;;;;;;;0.93;46.28;98453.07;1783048;80;21106;-60
2021/03/09 12:15:43;;;;;;;5.60;3.33;;;;;;;0.98;45.85;98453.23;1815063;79;20928;-60
2021/03/09 12:18:12;;;;;;;7.42;3.12;;;;;;;0.98;45.74;98446.64;1806042;79;20924;-59
2021/03/09 12:20:40;;;;;;;4.78;3.10;;;;;;;0.92;45.65;98450.12;1797259;79;21164;-63
2021/03/09 12:23:09;;;;;;;4.10;3.02;;;;;;;0.82;45.38;98449.84;1772206;81;21536;-57
2021/03/09 12:25:38;;;;;;;4.53;2.90;;;;;;;0.77;45.74;98452.81;1768230;80;21603;-58
2021/03/09 12:28:07;;;;;;;4.53;2.80;;;;;;;0.82;45.09;98451.66;1814848;78;21194;-58
2021/03/09 12:30:35;;;;;;;7.08;3.98;;;;;;;0.82;44.99;98448.52;1770356;80;21494;-66
2021/03/09 12:33:04;;;;;;;3.67;2.92;;;;;;;0.78;45.32;98444.67;1767627;81;20896;-58
2021/03/09 12:35:37;;;;;;;3.50;2.65;;;;;;;0.83;45.45;98447.48;1767686;81;21202;-58
2021/03/09 12:38:05;;;;;;;4.22;2.77;;;;;;;0.86;45.02;98446.23;1777453;79;20978;-59
2021/03/09 12:40:34;;;;;;;2.92;2.00;;;;;;;0.81;44.42;98454.80;1778380;79;21084;-61
2021/03/09 12:43:02;;;;;;;7.25;3.72;;;;;;;0.75;44.55;98453.05;1781130;80;21511;-60
2021/03/09 12:45:31;;;;;;;6.85;2.70;;;;;;;0.89;44.55;98445.81;1780990;80;20938;-57
2021/03/09 12:47:59;;;;;;;10.90;2.62;;;;;;;1.17;43.90;98446.95;1781098;80;22019;-60
2021/03/09 12:50:27;;;;;;;3.20;2.72;;;;;;;1.47;43.03;98445.69;1770771;78;22100;-59
2021/03/09 12:52:56;;;;;;;4.72;3.27;;;;;;;1.57;42.30;98439.89;1803385;78;21055;-61
2021/03/09 12:55:24;;;;;;;4.60;4.10;;;;;;;1.56;43.04;98439.08;1769177;80;21626;-58
2021/03/09 12:57:52;;;;;;;7.55;3.58;;;;;;;1.52;43.22;98446.35;1794313;80;21167;-62
2021/03/09 13:00:22;;;;;;;4.22;2.52;;;;;;;1.42;42.39;98448.19;1787038;80;21715;-61
2021/03/09 13:02:50;;;;;;;5.53;2.87;;;;;;;1.28;42.29;98455.45;1762747;81;21213;-60
2021/03/09 13:05:21;;;;;;;4.37;2.58;;;;;;;1.11;43.15;98442.53;1773052;78;20993;-61
2021/03/09 13:07:50;;;;;;;4.42;2.47;;;;;;;1.04;42.97;98449.70;1796010;78;21688;-58
2021/03/09 13:10:18;;;;;;;4.05;2.50;;;;;;;1.01;43.14;98446.71;1831827;78;21229;-60
2021/03/09 13:12:50;;;;;;;4.42;3.00;;;;;;;0.96;42.84;98444.73;1781899;80;23518;-60
2021/03/09 13:15:19;;;;;;;3.62;2.60;;;;;;;0.97;43.47;98445.52;1779881;79;20953;-57
2021/03/09 13:17:48;;;;;;;3.50;2.67;;;;;;;0.97;43.28;98448.16;1754589;81;21470;-59
2021/03/09 13:20:19;;;;;;;4.05;2.72;;;;;;;0.98;43.51;98446.64;1780207;79;21657;-54
2021/03/09 13:22:47;;;;;;;5.62;3.62;;;;;;;1.06;43.58;98446.87;1776311;80;21478;-61
2021/03/09 13:25:22;;;;;;;6.45;3.58;;;;;;;1.08;43.39;98442.99;1771240;81;22200;-61
2021/03/09 13:27:50;;;;;;;7.72;3.58;;;;;;;1.07;43.36;98449.28;1782449;78;21535;-57
2021/03/09 13:30:26;;;;;;;6.75;2.80;;;;;;;1.07;42.89;98447.95;1819174;77;21552;-59
2021/03/09 13:32:58;;;;;;;4.00;3.00;;;;;;;1.02;42.86;98441.21;1769464;78;21053;-57
2021/03/09 13:35:28;;;;;;;5.80;3.08;;;;;;;0.97;42.92;98441.55;1752953;81;21006;-60
2021/03/09 13:37:58;;;;;;;5.65;3.33;;;;;;;0.93;42.54;98438.56;1791593;77;22095;-60
2021/03/09 13:40:30;;;;;;;5.05;3.20;;;;;;;0.76;42.41;98448.05;1800208;77;21061;-58
2021/03/09 13:42:58;;;;;;;6.50;3.05;;;;;;;0.59;43.11;98446.97;1805589;77;21012;-60
2021/03/09 13:54:47;;;;;;;5.60;3.02;;;;;;;0.92;43.41;98447.48;1836626;76;26986;-57
2021/03/09 13:57:19;;;;;;;2.87;2.20;;;;;;;1.11;43.08;98445.67;1807919;77;20960;-57
2021/03/09 13:59:47;;;;;;;4.90;2.47;;;;;;;1.29;40.50;98446.52;1809123;79;22310;-60
2021/03/09 14:02:16;;;;;;;6.62;2.70;;;;;;;1.23;38.87;98441.29;1800457;77;21516;-58
2021/03/09 14:04:46;;;;;;;4.72;3.10;;;;;;;1.10;39.58;98439.62;1746124;80;21519;-58
2021/03/09 14:07:15;;;;;;;6.28;3.55;;;;;;;0.90;40.25;98435.03;1757842;79;20921;-56
2021/03/09 14:09:43;;;;;;;8.35;4.60;;;;;;;0.73;41.21;98440.56;1770950;79;21528;-58
2021/03/09 14:12:12;;;;;;;6.92;3.30;;;;;;;0.61;41.62;98447.59;1750909;81;22159;-62
2021/03/09 14:14:40;;;;;;;4.87;2.98;;;;;;;0.49;42.05;98440.08;1817983;79;21200;-57
2021/03/09 14:17:10;;;;;;;4.87;3.12;;;;;;;0.38;42.35;98448.66;1817438;79;21929;-58
2021/03/09 14:19:43;;;;;;;11.57;5.90;;;;;;;0.25;43.04;98440.36;1816418;79;21022;-57
2021/03/09 14:22:13;;;;;;;7.40;4.47;;;;;;;0.25;43.54;98440.36;1817292;77;21222;-58
2021/03/09 14:24:42;;;;;;;9.93;4.80;;;;;;;0.30;44.02;98444.48;1817204;79;21376;-57
2021/03/09 14:27:15;;;;;;;8.98;5.40;;;;;;;0.34;43.83;98439.58;1803905;77;21207;-58
2021/03/09 14:29:50;;;;;;;6.00;4.00;;;;;;;0.45;44.17;98441.50;1791053;77;21206;-60
2021/03/09 14:32:18;;;;;;;8.15;3.27;;;;;;;0.56;43.57;98439.52;1794675;77;21509;-59
2021/03/09 14:34:46;;;;;;;6.85;3.40;;;;;;;0.52;43.07;98435.67;1817164;79;21248;-63
2021/03/09 14:37:15;;;;;;;8.13;3.83;;;;;;;0.43;43.06;98431.70;1816349;79;22971;-60
2021/03/09 14:39:43;;;;;;;7.00;3.47;;;;;;;0.37;43.34;98434.70;1817156;79;21582;-56
2021/03/09 14:42:12;;;;;;;8.83;4.28;;;;;;;0.33;43.46;98441.92;1817356;79;21550;-57
2021/03/09 14:44:39;;;;;;;7.60;4.15;;;;;;;0.27;43.12;98432.23;1817242;79;21752;-61
2021/03/09 14:47:08;;;;;;;7.87;4.72;;;;;;;0.15;43.11;98433.93;1817907;79;21384;-57
2021/03/09 14:49:36;;;;;;;7.05;3.90;;;;;;;-0.01;43.61;98432.12;1818606;79;21913;-57
2021/03/09 14:52:05;;;;;;;5.45;3.90;;;;;;;-0.10;43.62;98439.98;1818496;79;20941;-58
2021/03/09 14:54:37;;;;;;;4.45;3.17;;;;;;;-0.18;43.89;98438.89;1812080;79;21281;-58
2021/03/09 14:57:06;;;;;;;11.38;4.28;;;;;;;-0.24;43.98;98436.30;1810622;79;20925;-61
2021/03/09 14:59:37;;;;;;;9.40;5.22;;;;;;;-0.33;44.14;98434.40;1810731;79;20906;-59
2021/03/09 15:02:07;;;;;;;7.45;4.15;;;;;;;-0.39;44.38;98437.88;1811463;79;22655;-60
2021/03/09 15:04:36;;;;;;;5.90;2.98;;;;;;;-0.43;44.35;98437.20;1810335;79;21108;-61
2021/03/09 15:07:04;;;;;;;7.45;3.60;;;;;;;-0.49;44.79;98430.94;1810078;79;21368;-64
2021/03/09 15:09:32;;;;;;;6.00;3.08;;;;;;;-0.49;45.02;98440.15;1810032;79;21029;-60
2021/03/09 15:12:01;;;;;;;8.65;3.50;;;;;;;-0.48;45.17;98445.73;1808310;78;21072;-60
2021/03/09 15:14:29;;;;;;;6.03;3.35;;;;;;;-0.49;45.25;98441.47;1803531;78;22284;-63
2021/03/09 15:17:00;;;;;;;7.03;3.37;;;;;;;-0.49;45.35;98441.97;1813024;78;21552;-61
2021/03/09 15:19:34;;;;;;;6.67;3.00;;;;;;;-0.46;45.61;98438.42;1779873;80;20987;-59
2021/03/09 15:22:06;;;;;;;6.25;3.30;;;;;;;-0.44;45.14;98437.70;1828907;78;20916;-57
2021/03/09 15:24:35;;;;;;;6.85;3.25;;;;;;;-0.49;45.25;98434.88;1774484;80;20930;-58
2021/03/09 15:27:06;;;;;;;6.35;3.30;;;;;;;-0.56;45.39;98438.05;1812484;79;21548;-58
2021/03/09 15:29:35;;;;;;;8.25;4.47;;;;;;;-0.58;45.69;98439.27;1787365;79;20948;-59
2021/03/09 15:32:05;;;;;;;6.20;4.17;;;;;;;-0.60;45.82;98440.80;1812293;79;20876;-59
2021/03/09 15:34:33;;;;;;;9.73;6.17;;;;;;;-0.59;45.77;98447.70;1812234;78;20991;-57
2021/03/09 15:37:01;;;;;;;6.55;4.60;;;;;;;-0.60;45.47;98446.57;1812312;78;20991;-59
2021/03/09 15:39:32;;;;;;;7.35;3.90;;;;;;;-0.66;45.72;98446.91;1812271;79;21522;-59
2021/03/09 15:42:00;;;;;;;10.10;4.05;;;;;;;-0.67;45.86;98449.73;1815112;78;21154;-60
2021/03/09 15:44:28;;;;;;;6.97;4.37;;;;;;;-0.65;46.10;98451.14;1780231;80;21497;-58
2021/03/09 15:46:57;;;;;;;6.70;3.72;;;;;;;-0.66;46.20;98457.44;1828872;78;21461;-58
2021/03/09 15:49:26;;;;;;;10.30;4.42;;;;;;;-0.70;45.79;98451.77;1780182;80;21462;-58
2021/03/09 15:51:54;;;;;;;8.13;3.80;;;;;;;-0.74;46.03;98453.70;1828905;78;21890;-57
2021/03/09 15:54:23;;;;;;;7.62;4.60;;;;;;;-0.78;46.35;98459.09;1779992;80;20952;-61
2021/03/09 15:56:51;;;;;;;6.42;4.42;;;;;;;-0.84;46.41;98465.16;1828916;78;21011;-60
2021/03/09 15:59:19;;;;;;;7.92;4.78;;;;;;;-0.92;46.65;98456.19;1780172;80;21018;-59
2021/03/09 16:01:47;;;;;;;14.50;6.87;;;;;;;-0.99;46.98;98464.59;1828944;78;21462;-57
2021/03/09 16:04:15;;;;;;;17.60;9.13;;;;;;;-1.00;47.29;98460.34;1780179;80;22704;-57
2021/03/09 16:06:43;;;;;;;31.00;14.65;;;;;;;-1.01;47.75;98468.73;1828826;78;21070;-59
2021/03/09 16:09:11;;;;;;;26.50;14.13;;;;;;;-1.10;47.80;98471.77;1780131;80;21580;-59
2021/03/09 16:11:39;;;;;;;29.40;15.40;;;;;;;-1.21;48.03;98471.91;1828750;78;21180;-57
2021/03/09 16:14:08;;;;;;;29.02;18.17;;;;;;;-1.28;48.17;98469.78;1778783;80;21176;-57
2021/03/09 16:16:36;;;;;;;25.02;14.98;;;;;;;-1.31;48.52;98478.06;1827641;78;21982;-57
2021/03/09 16:19:05;;;;;;;24.57;15.83;;;;;;;-1.39;48.46;98479.07;1778935;80;21199;-63
2021/03/09 16:21:33;;;;;;;16.52;11.90;;;;;;;-1.46;48.88;98493.24;1827134;78;21507;-61
2021/03/09 16:24:04;;;;;;;38.50;23.38;;;;;;;-1.49;49.18;98492.33;1778681;80;21074;-60
2021/03/09 16:26:32;;;;;;;31.52;19.57;;;;;;;-1.52;49.23;98488.77;1827860;78;21295;-60
2021/03/09 16:29:02;;;;;;;21.57;12.85;;;;;;;-1.55;49.29;98493.92;1778791;80;22056;-60
2021/03/09 16:31:31;;;;;;;18.52;11.50;;;;;;;-1.58;49.58;98491.69;1828768;78;21125;-59
2021/03/09 16:34:00;;;;;;;29.37;15.98;;;;;;;-1.65;49.71;98490.09;1780114;80;21557;-60
2021/03/09 16:36:28;;;;;;;19.17;12.15;;;;;;;-1.67;49.97;98496.84;1828768;78;20943;-57
2021/03/09 16:38:56;;;;;;;24.32;12.37;;;;;;;-1.74;50.28;98499.95;1780116;80;21398;-60
2021/03/09 16:41:25;;;;;;;22.32;12.75;;;;;;;-1.78;50.30;98497.44;1828899;78;22061;-57
2021/03/09 16:43:53;;;;;;;17.82;12.50;;;;;;;-1.79;50.42;98507.62;1780180;80;21530;-59
2021/03/09 16:46:21;;;;;;;33.18;17.02;;;;;;;-1.80;50.52;98500.77;1829071;78;21418;-60
2021/03/09 16:48:49;;;;;;;24.65;16.10;;;;;;;-1.90;50.74;98505.59;1779713;80;21596;-58
2021/03/09 16:51:17;;;;;;;28.50;17.62;;;;;;;-2.02;50.95;98507.16;1828960;78;21445;-57
2021/03/09 16:53:45;;;;;;;32.05;20.02;;;;;;;-2.10;51.30;98509.98;1774297;80;22307;-61
2021/03/09 16:56:13;;;;;;;29.05;16.50;;;;;;;-2.17;51.20;98507.84;1784182;80;21536;-57
2021/03/09 16:58:41;;;;;;;21.52;13.68;;;;;;;-2.23;51.47;98516.48;1783841;80;20976;-59
2021/03/09 17:01:09;;;;;;;19.92;12.10;;;;;;;-2.30;51.90;98507.78;1752805;81;21197;-61
2021/03/09 17:03:38;;;;;;;17.65;11.12;;;;;;;-2.38;52.14;98513.20;1783761;80;21489;-60
2021/03/09 17:06:06;;;;;;;20.48;11.48;;;;;;;-2.44;52.12;98516.59;1752791;81;21910;-60
2021/03/09 17:08:34;;;;;;;28.07;12.45;;;;;;;-2.51;52.08;98518.38;1783708;80;20908;-61
2021/03/09 17:11:02;;;;;;;22.87;12.37;;;;;;;-2.54;52.41;98522.72;1752723;81;21136;-61
2021/03/09 17:13:30;;;;;;;24.45;12.43;;;;;;;-2.57;52.64;98521.79;1783667;80;21584;-60
2021/03/09 17:15:58;;;;;;;29.45;17.65;;;;;;;-2.62;52.90;98531.55;1752832;81;21094;-58
2021/03/09 17:18:26;;;;;;;30.32;18.62;;;;;;;-2.67;53.11;98524.77;1783749;80;22086;-58
2021/03/09 17:20:55;;;;;;;54.10;28.52;;;;;;;-2.69;53.28;98529.89;1783722;80;21101;-57
2021/03/09 17:23:23;;;;;;;39.78;24.05;;;;;;;-2.78;53.30;98524.00;1752699;81;21018;-56
2021/03/09 17:25:51;;;;;;;30.00;18.23;;;;;;;-2.84;53.19;98525.56;1783779;80;21540;-59
2021/03/09 17:28:19;;;;;;;31.40;18.75;;;;;;;-2.86;53.31;98532.00;1752738;81;21588;-62
2021/03/09 17:30:52;;;;;;;31.77;17.85;;;;;;;-2.88;53.36;98533.52;1783720;80;22089;-58
2021/03/09 17:33:20;;;;;;;21.80;14.38;;;;;;;-2.92;53.38;98534.88;1783606;80;20987;-60
2021/03/09 17:35:48;;;;;;;19.92;13.05;;;;;;;-2.96;53.51;98539.38;1752758;81;21466;-58
2021/03/09 17:38:16;;;;;;;16.62;11.48;;;;;;;-3.00;53.85;98527.67;1783703;80;21473;-58
2021/03/09 17:40:46;;;;;;;16.85;10.53;;;;;;;-3.07;54.39;98534.67;1752725;81;20936;-59
